createdAt,value
2023-04-21T00:00:36.752Z,6.83
2023-04-21T00:03:08.438Z,6.85
2023-04-21T00:05:42.561Z,6.91
2023-04-21T00:08:16.475Z,6.93
2023-04-21T00:10:48.097Z,6.93
2023-04-21T00:13:19.581Z,6.87
2023-04-21T00:15:51.401Z,6.91
2023-04-21T00:18:22.914Z,6.92
2023-04-21T00:20:54.831Z,6.92
2023-04-21T00:23:26.371Z,6.93
2023-04-21T00:25:57.932Z,6.95
2023-04-21T00:28:29.816Z,6.93
2023-04-21T00:31:01.364Z,6.96
2023-04-21T00:33:32.817Z,6.99
2023-04-21T00:36:04.699Z,7.00
2023-04-21T00:38:36.471Z,7.02
2023-04-21T00:41:08.062Z,7.04
2023-04-21T00:44:06.063Z,7.02
2023-04-21T00:46:38.663Z,7.00
2023-04-21T00:49:10.422Z,7.01
2023-04-21T00:51:42.109Z,7.03
2023-04-21T00:54:14.267Z,7.01
2023-04-21T00:56:45.971Z,7.02
2023-04-21T00:59:17.699Z,7.06
2023-04-21T01:01:49.501Z,7.10
2023-04-21T01:04:21.063Z,7.09
2023-04-21T01:06:54.145Z,7.06
2023-04-21T01:09:27.037Z,7.08
2023-04-21T01:12:09.910Z,7.04
2023-04-21T01:14:41.594Z,7.02
2023-04-21T01:17:13.209Z,7.02
2023-04-21T01:19:45.615Z,6.99
2023-04-21T01:22:17.060Z,7.04
2023-04-21T01:24:49.487Z,7.05
2023-04-21T01:27:21.334Z,7.04
2023-04-21T01:29:53.345Z,7.10
2023-04-21T01:32:28.960Z,7.13
2023-04-21T01:35:00.812Z,7.09
2023-04-21T01:37:33.981Z,7.14
2023-04-21T01:40:07.794Z,7.14
2023-04-21T01:42:41.505Z,7.15
2023-04-21T01:45:13.183Z,7.15
2023-04-21T01:47:44.756Z,7.12
2023-04-21T01:50:16.563Z,7.12
2023-04-21T01:52:48.102Z,7.13
2023-04-21T01:55:19.752Z,7.14
2023-04-21T01:57:51.295Z,7.13
2023-04-21T02:00:22.856Z,7.14
2023-04-21T02:02:54.475Z,7.13
2023-04-21T02:05:26.205Z,7.15
2023-04-21T02:07:57.812Z,7.16
2023-04-21T02:10:29.299Z,7.16
2023-04-21T02:13:01.129Z,7.12
2023-04-21T02:15:33.602Z,7.12
2023-04-21T02:18:05.360Z,7.14
2023-04-21T02:20:37.629Z,7.17
2023-04-21T02:23:10.228Z,7.18
2023-04-21T02:25:41.697Z,7.17
2023-04-21T02:28:13.195Z,7.19
2023-04-21T02:30:44.668Z,7.20
2023-04-21T02:33:16.251Z,7.16
2023-04-21T02:35:47.747Z,7.18
2023-04-21T02:38:19.287Z,7.14
2023-04-21T02:40:51.054Z,7.12
2023-04-21T02:43:22.632Z,7.17
2023-04-21T02:45:54.096Z,7.16
2023-04-21T02:48:26.750Z,7.19
2023-04-21T02:50:58.427Z,7.20
2023-04-21T02:53:30.356Z,7.14
2023-04-21T02:56:04.636Z,7.15
2023-04-21T02:58:37.308Z,7.17
2023-04-21T03:01:08.858Z,7.13
2023-04-21T03:03:41.966Z,7.15
2023-04-21T03:06:14.159Z,7.12
2023-04-21T03:08:45.892Z,7.10
2023-04-21T03:11:17.389Z,7.06
2023-04-21T03:13:48.845Z,7.04
2023-04-21T03:16:20.325Z,7.03
2023-04-21T03:18:51.819Z,7.04
2023-04-21T03:21:23.265Z,6.98
2023-04-21T03:23:54.770Z,7.02
2023-04-21T03:26:26.248Z,7.01
2023-04-21T03:28:57.720Z,7.01
2023-04-21T03:31:29.257Z,7.03
2023-04-21T03:34:00.833Z,7.02
2023-04-21T03:36:32.293Z,7.00
2023-04-21T03:39:13.140Z,7.00
2023-04-21T03:41:52.203Z,6.99
2023-04-21T03:44:27.138Z,6.96
2023-04-21T03:46:58.856Z,6.99
2023-04-21T03:49:30.723Z,7.00
2023-04-21T03:52:02.450Z,6.99
2023-04-21T03:54:34.002Z,6.97
2023-04-21T03:57:05.570Z,6.94
2023-04-21T03:59:37.113Z,6.91
2023-04-21T04:02:08.869Z,6.87
2023-04-21T04:04:41.023Z,6.85
2023-04-21T04:07:12.662Z,6.80
2023-04-21T04:09:44.708Z,6.79
2023-04-21T04:12:16.195Z,6.73
2023-04-21T04:14:47.631Z,6.71
2023-04-21T04:17:19.066Z,6.68
2023-04-21T04:19:50.558Z,6.68
2023-04-21T04:22:22.000Z,6.67
2023-04-21T04:24:53.510Z,6.61
2023-04-21T04:27:25.191Z,6.56
2023-04-21T04:29:57.684Z,6.50
2023-04-21T04:32:29.382Z,6.47
2023-04-21T04:35:00.989Z,6.49
2023-04-21T04:37:34.450Z,6.52
2023-04-21T04:40:07.452Z,6.55
2023-04-21T04:42:40.101Z,6.55
2023-04-21T04:45:11.667Z,6.58
2023-04-21T04:47:43.550Z,6.58
2023-04-21T04:50:15.091Z,6.61
2023-04-21T04:52:47.637Z,6.61
2023-04-21T04:55:19.453Z,6.64
2023-04-21T04:57:51.770Z,6.66
2023-04-21T05:00:23.347Z,6.66
2023-04-21T05:02:55.934Z,6.69
2023-04-21T05:05:27.585Z,6.74
2023-04-21T05:07:59.135Z,6.76
2023-04-21T05:10:30.599Z,6.79
2023-04-21T05:13:02.095Z,6.80
2023-04-21T05:15:33.571Z,6.85
2023-04-21T05:18:05.306Z,6.88
2023-04-21T05:20:36.855Z,6.94
2023-04-21T05:23:08.745Z,6.99
2023-04-21T05:25:40.281Z,7.01
2023-04-21T05:28:11.854Z,7.02
2023-04-21T05:30:43.426Z,7.04
2023-04-21T05:33:17.859Z,7.13
2023-04-21T05:35:49.488Z,7.18
2023-04-21T05:38:21.191Z,7.25
2023-04-21T05:40:55.329Z,7.31
2023-04-21T05:43:27.105Z,7.37
2023-04-21T05:45:58.948Z,7.41
2023-04-21T05:48:30.496Z,7.46
2023-04-21T05:51:12.283Z,7.46
2023-04-21T05:53:45.416Z,7.47
2023-04-21T05:56:16.909Z,7.54
2023-04-21T05:58:48.401Z,7.62
2023-04-21T06:01:20.221Z,7.69
2023-04-21T06:03:51.990Z,7.82
2023-04-21T06:06:25.671Z,7.91
2023-04-21T06:08:57.449Z,8.07
2023-04-21T06:11:28.951Z,8.32
2023-04-21T06:14:01.775Z,8.41
2023-04-21T06:16:34.308Z,8.56
2023-04-21T06:19:05.957Z,8.67
2023-04-21T06:21:37.464Z,8.68
2023-04-21T06:24:09.232Z,8.81
2023-04-21T06:26:40.720Z,8.78
2023-04-21T06:29:12.222Z,8.88
2023-04-21T06:31:43.752Z,9.05
2023-04-21T06:34:15.933Z,9.22
2023-04-21T06:36:47.452Z,9.30
2023-04-21T06:39:18.921Z,9.47
2023-04-21T06:41:50.359Z,9.47
2023-04-21T06:44:22.010Z,9.62
2023-04-21T06:46:53.708Z,9.70
2023-04-21T06:49:25.338Z,9.83
2023-04-21T06:51:56.852Z,9.85
2023-04-21T06:54:28.279Z,10.02
2023-04-21T06:56:59.920Z,10.08
2023-04-21T06:59:31.574Z,10.11
2023-04-21T07:02:03.256Z,10.16
2023-04-21T07:04:34.963Z,10.23
2023-04-21T07:07:06.692Z,10.30
2023-04-21T07:09:38.408Z,10.21
2023-04-21T07:12:09.957Z,10.26
2023-04-21T07:14:41.624Z,10.29
2023-04-21T07:17:13.270Z,10.31
2023-04-21T07:19:44.843Z,10.31
2023-04-21T07:22:16.400Z,10.37
2023-04-21T07:24:49.355Z,10.46
2023-04-21T07:27:21.194Z,10.54
2023-04-21T07:29:52.757Z,10.49
2023-04-21T07:32:24.460Z,10.53
2023-04-21T07:34:56.297Z,10.56
2023-04-21T07:37:27.808Z,10.60
2023-04-21T07:39:59.532Z,10.67
2023-04-21T07:42:31.058Z,10.71
2023-04-21T07:45:03.573Z,10.74
2023-04-21T07:47:35.679Z,10.80
2023-04-21T07:50:07.967Z,10.78
2023-04-21T07:52:39.483Z,10.76
2023-04-21T07:55:11.370Z,10.85
2023-04-21T07:57:42.986Z,10.91
2023-04-21T08:00:15.473Z,10.94
2023-04-21T08:02:47.179Z,10.99
2023-04-21T08:05:18.956Z,10.94
2023-04-21T08:07:50.765Z,10.94
2023-04-21T08:13:11.526Z,11.20
2023-04-21T08:15:43.083Z,11.40
2023-04-21T08:18:17.209Z,11.45
2023-04-21T08:20:49.822Z,11.59
2023-04-21T08:23:21.355Z,11.77
2023-04-21T08:25:52.923Z,11.83
2023-04-21T08:28:24.433Z,12.00
2023-04-21T08:30:55.961Z,12.17
2023-04-21T08:33:27.963Z,12.23
2023-04-21T08:36:07.403Z,12.36
2023-04-21T08:38:43.817Z,12.56
2023-04-21T08:41:15.503Z,12.69
2023-04-21T08:43:47.023Z,12.85
2023-04-21T08:46:19.068Z,12.93
2023-04-21T08:48:52.230Z,12.98
2023-04-21T08:51:28.060Z,12.83
2023-04-21T08:53:59.533Z,13.04
2023-04-21T08:56:31.054Z,13.13
2023-04-21T08:59:02.625Z,13.13
2023-04-21T09:01:34.254Z,13.42
2023-04-21T09:04:17.499Z,13.46
2023-04-21T09:06:49.278Z,13.13
2023-04-21T09:09:21.003Z,13.42
2023-04-21T09:11:59.883Z,13.44
2023-04-21T09:14:35.209Z,13.43
2023-04-21T09:17:06.809Z,13.69
2023-04-21T09:19:38.681Z,13.85
2023-04-21T09:22:15.648Z,13.95
2023-04-21T09:24:58.000Z,14.00
2023-04-21T09:27:29.611Z,14.13
2023-04-21T09:30:07.184Z,13.92
2023-04-21T09:32:40.475Z,14.22
2023-04-21T09:35:12.267Z,14.31
2023-04-21T09:37:44.614Z,14.40
2023-04-21T09:40:18.568Z,14.40
2023-04-21T09:42:50.610Z,14.56
2023-04-21T09:45:38.962Z,14.73
2023-04-21T09:48:16.546Z,14.50
2023-04-21T09:53:25.450Z,15.17
2023-04-21T09:55:58.647Z,15.38
2023-04-21T09:58:37.134Z,15.52
2023-04-21T10:01:09.795Z,15.62
2023-04-21T10:03:43.555Z,15.90
2023-04-21T10:06:15.643Z,16.00
2023-04-21T10:08:47.939Z,15.74
2023-04-21T10:11:19.327Z,16.02
2023-04-21T10:13:51.201Z,16.11
2023-04-21T10:16:23.309Z,16.29
2023-04-21T10:18:54.849Z,16.51
2023-04-21T10:21:26.858Z,16.47
2023-04-21T10:23:59.220Z,16.62
2023-04-21T10:26:35.540Z,16.62
2023-04-21T10:29:09.414Z,16.67
2023-04-21T10:31:54.819Z,16.59
2023-04-21T10:34:26.414Z,16.63
2023-04-21T10:36:58.130Z,16.79
2023-04-21T10:39:53.292Z,16.63
2023-04-21T10:42:29.005Z,16.76
2023-04-21T10:45:05.973Z,16.76
2023-04-21T10:47:46.500Z,16.91
2023-04-21T10:50:23.257Z,17.03
2023-04-21T10:52:56.469Z,17.10
2023-04-21T10:55:29.595Z,17.20
2023-04-21T10:58:03.098Z,17.05
2023-04-21T11:00:35.825Z,17.12
2023-04-21T11:03:08.478Z,17.24
2023-04-21T11:05:41.318Z,17.38
2023-04-21T11:08:14.987Z,17.49
2023-04-21T11:10:48.559Z,17.52
2023-04-21T11:13:25.425Z,17.52
2023-04-21T11:16:06.645Z,17.42
2023-04-21T11:18:42.298Z,17.56
2023-04-21T11:21:18.615Z,17.64
2023-04-21T11:23:55.088Z,17.64
2023-04-21T11:26:34.482Z,17.73
2023-04-21T11:29:08.177Z,17.85
2023-04-21T11:31:42.024Z,17.97
2023-04-21T11:34:15.459Z,18.05
2023-04-21T11:36:48.954Z,17.93
2023-04-21T11:39:22.229Z,18.09
2023-04-21T11:41:54.616Z,18.13
2023-04-21T11:44:33.259Z,18.24
2023-04-21T11:47:19.119Z,18.42
2023-04-21T11:49:56.177Z,18.54
2023-04-21T11:52:39.314Z,18.56
2023-04-21T11:55:16.335Z,18.71
2023-04-21T11:57:51.179Z,18.83
2023-04-21T12:00:22.746Z,18.89
2023-04-21T12:02:56.492Z,18.98
2023-04-21T12:05:36.062Z,19.09
2023-04-21T12:08:14.844Z,19.17
2023-04-21T12:10:47.157Z,19.33
2023-04-21T12:13:28.606Z,19.13
2023-04-21T12:16:03.119Z,19.34
2023-04-21T12:18:36.750Z,19.19
2023-04-21T12:21:08.443Z,19.41
2023-04-21T12:23:39.986Z,19.45
2023-04-21T12:26:12.037Z,19.25
2023-04-21T12:28:43.432Z,19.40
2023-04-21T12:31:14.981Z,19.55
2023-04-21T12:33:46.673Z,19.46
2023-04-21T12:36:18.308Z,19.56
2023-04-21T12:38:49.887Z,19.76
2023-04-21T12:41:21.475Z,19.88
2023-04-21T12:43:53.025Z,20.04
2023-04-21T12:46:24.670Z,20.24
2023-04-21T12:48:56.444Z,20.34
2023-04-21T12:51:27.974Z,20.53
2023-04-21T12:53:59.684Z,20.67
2023-04-21T12:56:31.412Z,20.26
2023-04-21T12:59:03.032Z,20.53
2023-04-21T13:01:34.571Z,20.73
2023-04-21T13:04:08.201Z,20.84
2023-04-21T13:06:40.062Z,20.91
2023-04-21T13:09:11.757Z,21.07
2023-04-21T13:11:43.278Z,21.24
2023-04-21T13:14:15.980Z,21.35
2023-04-21T13:16:47.575Z,21.44
2023-04-21T13:19:19.259Z,21.36
2023-04-21T13:21:53.849Z,21.40
2023-04-21T13:24:26.800Z,21.14
2023-04-21T13:26:59.209Z,21.15
2023-04-21T13:29:33.994Z,21.28
2023-04-21T13:32:07.615Z,21.27
2023-04-21T13:34:39.118Z,21.51
2023-04-21T13:37:12.531Z,21.68
2023-04-21T13:39:44.068Z,21.38
2023-04-21T13:42:15.664Z,21.55
2023-04-21T13:44:47.254Z,21.48
2023-04-21T13:47:18.749Z,21.73
2023-04-21T13:49:51.467Z,21.79
2023-04-21T13:52:23.099Z,21.90
2023-04-21T13:54:54.690Z,21.78
2023-04-21T13:57:26.592Z,21.94
2023-04-21T13:59:58.337Z,22.13
2023-04-21T14:02:30.084Z,22.28
2023-04-21T14:05:02.137Z,22.43
2023-04-21T14:07:35.789Z,22.70
2023-04-21T14:10:07.764Z,22.87
2023-04-21T14:12:39.244Z,22.87
2023-04-21T14:15:13.103Z,22.97
2023-04-21T14:17:44.693Z,23.28
2023-04-21T14:20:16.222Z,23.85
2023-04-21T14:22:48.108Z,24.50
2023-04-21T14:25:19.445Z,25.66
2023-04-21T14:27:51.033Z,26.74
2023-04-21T14:30:22.583Z,29.12
2023-04-21T14:32:54.064Z,31.99
2023-04-21T14:35:25.752Z,34.16
2023-04-21T14:38:00.595Z,35.76
2023-04-21T14:40:32.065Z,38.10
2023-04-21T14:43:03.504Z,39.72
2023-04-21T14:45:35.637Z,40.39
2023-04-21T14:48:07.239Z,41.19
2023-04-21T14:50:38.835Z,42.85
2023-04-21T14:53:10.954Z,43.40
2023-04-21T14:55:42.471Z,43.94
2023-04-21T14:58:13.987Z,44.06
2023-04-21T15:00:45.885Z,45.01
2023-04-21T15:03:17.524Z,45.87
2023-04-21T15:05:49.295Z,45.52
2023-04-21T15:08:20.992Z,46.53
2023-04-21T15:10:53.498Z,45.88
2023-04-21T15:13:25.105Z,46.18
2023-04-21T15:15:56.706Z,46.14
2023-04-21T15:18:28.246Z,46.29
2023-04-21T15:20:59.916Z,46.29
2023-04-21T15:23:33.657Z,45.86
2023-04-21T15:26:05.223Z,44.64
2023-04-21T15:28:36.787Z,45.66
2023-04-21T15:31:10.063Z,46.51
2023-04-21T15:33:42.004Z,45.97
2023-04-21T15:36:13.573Z,46.02
2023-04-21T15:38:45.192Z,44.70
2023-04-21T15:41:17.481Z,44.86
2023-04-21T15:43:49.120Z,45.10
2023-04-21T15:46:20.722Z,45.53
2023-04-21T15:48:52.283Z,45.93
2023-04-21T15:51:23.848Z,47.47
2023-04-21T15:53:55.627Z,46.29
2023-04-21T15:56:27.203Z,47.20
2023-04-21T15:58:58.769Z,47.33
2023-04-21T16:01:30.409Z,47.97
2023-04-21T16:04:02.146Z,48.03
2023-04-21T16:06:34.791Z,47.03
2023-04-21T16:09:06.524Z,44.81
2023-04-21T16:11:38.203Z,45.22
2023-04-21T16:14:09.805Z,43.54
2023-04-21T16:16:41.554Z,38.44
2023-04-21T16:19:13.177Z,34.42
2023-04-21T16:21:44.818Z,32.84
2023-04-21T16:24:16.610Z,30.52
2023-04-21T16:26:48.192Z,28.62
2023-04-21T16:29:19.923Z,27.67
2023-04-21T16:31:51.493Z,26.63
2023-04-21T16:34:23.096Z,25.83
2023-04-21T16:36:54.632Z,25.51
2023-04-21T16:39:26.221Z,24.95
2023-04-21T16:41:57.689Z,24.75
2023-04-21T16:44:29.170Z,24.27
2023-04-21T16:47:00.813Z,23.90
2023-04-21T16:49:32.572Z,23.38
2023-04-21T16:52:03.943Z,22.70
2023-04-21T16:54:35.624Z,22.31
2023-04-21T16:57:07.344Z,21.93
2023-04-21T16:59:38.964Z,21.85
2023-04-21T17:02:13.107Z,21.61
2023-04-21T17:04:47.887Z,21.29
2023-04-21T17:07:19.478Z,21.00
2023-04-21T17:09:51.341Z,20.90
2023-04-21T17:12:22.919Z,20.73
2023-04-21T17:14:54.511Z,20.56
2023-04-21T17:17:26.197Z,20.56
2023-04-21T17:19:57.836Z,20.28
2023-04-21T17:22:29.393Z,20.15
2023-04-21T17:25:00.923Z,20.06
2023-04-21T17:27:35.750Z,19.73
2023-04-21T17:30:11.300Z,19.65
2023-04-21T17:32:43.782Z,19.60
2023-04-21T17:35:15.471Z,19.40
2023-04-21T17:37:47.236Z,19.33
2023-04-21T17:40:18.872Z,19.18
2023-04-21T17:42:50.466Z,19.08
2023-04-21T17:45:22.319Z,19.01
2023-04-21T17:47:54.067Z,18.93
2023-04-21T17:50:27.398Z,18.79
2023-04-21T17:52:58.982Z,18.67
2023-04-21T17:55:30.918Z,18.55
2023-04-21T17:58:02.575Z,18.43
2023-04-21T18:00:34.550Z,18.30
2023-04-21T18:03:06.600Z,18.30
2023-04-21T18:05:38.340Z,18.04
2023-04-21T18:08:10.025Z,17.97
2023-04-21T18:10:41.920Z,17.83
2023-04-21T18:13:13.495Z,17.64
2023-04-21T18:15:45.362Z,17.54
2023-04-21T18:18:17.821Z,17.42
2023-04-21T18:20:49.327Z,17.32
2023-04-21T18:23:21.416Z,17.18
2023-04-21T18:25:52.919Z,17.07
2023-04-21T18:28:24.399Z,17.02
2023-04-21T18:30:57.730Z,16.88
2023-04-21T18:33:31.728Z,16.79
2023-04-21T18:36:03.441Z,16.71
2023-04-21T18:38:39.414Z,16.65
2023-04-21T18:41:11.026Z,16.57
2023-04-21T18:43:42.669Z,16.50
2023-04-21T18:46:18.160Z,16.43
2023-04-21T18:48:50.179Z,16.31
2023-04-21T18:51:21.783Z,16.21
2023-04-21T18:53:53.285Z,16.09
2023-04-21T18:56:26.890Z,16.02
2023-04-21T18:58:59.165Z,15.92
2023-04-21T19:01:31.069Z,15.81
2023-04-21T19:04:02.890Z,15.70
2023-04-21T19:06:34.939Z,15.66
2023-04-21T19:09:06.624Z,15.64
2023-04-21T19:11:38.143Z,15.35
2023-04-21T19:14:09.693Z,15.40
2023-04-21T19:16:43.370Z,14.98
2023-04-21T19:19:14.931Z,14.87
2023-04-21T19:21:46.459Z,14.97
2023-04-21T19:24:18.009Z,14.84
2023-04-21T19:26:49.530Z,14.47
2023-04-21T19:29:21.225Z,14.33
2023-04-21T19:31:53.436Z,14.33
2023-04-21T19:34:25.186Z,14.40
2023-04-21T19:36:56.803Z,14.27
2023-04-21T19:39:28.565Z,14.16
2023-04-21T19:42:01.131Z,14.01
2023-04-21T19:44:33.905Z,13.95
2023-04-21T19:47:05.695Z,13.83
2023-04-21T19:49:37.434Z,13.83
2023-04-21T19:52:09.156Z,13.82
2023-04-21T19:54:41.281Z,13.78
2023-04-21T19:57:16.055Z,13.66
2023-04-21T19:59:49.041Z,13.70
2023-04-21T20:02:20.868Z,13.60
2023-04-21T20:04:53.647Z,13.55
2023-04-21T20:07:26.311Z,13.64
2023-04-21T20:09:57.859Z,13.62
2023-04-21T20:12:30.605Z,13.55
2023-04-21T20:15:02.917Z,13.59
2023-04-21T20:17:34.557Z,13.50
2023-04-21T20:20:07.112Z,13.51
2023-04-21T20:22:38.798Z,13.50
2023-04-21T20:25:10.785Z,13.46
2023-04-21T20:27:42.454Z,13.51
2023-04-21T20:30:14.192Z,13.51
2023-04-21T20:32:45.897Z,13.58
2023-04-21T20:35:17.866Z,13.61
2023-04-21T20:37:50.359Z,13.61
2023-04-21T20:40:22.254Z,13.66
2023-04-21T20:42:53.818Z,13.66
2023-04-21T20:45:26.233Z,13.67
2023-04-21T20:47:57.898Z,13.43
2023-04-21T20:50:29.588Z,13.46
2023-04-21T20:53:02.129Z,13.20
2023-04-21T20:55:33.740Z,13.27
2023-04-21T20:58:05.495Z,13.28
2023-04-21T21:00:37.378Z,13.31
2023-04-21T21:03:11.602Z,13.31
2023-04-21T21:05:43.416Z,13.28
2023-04-21T21:08:15.288Z,13.30
2023-04-21T21:10:46.802Z,13.28
2023-04-21T21:13:18.387Z,13.27
2023-04-21T21:15:51.287Z,13.25
2023-04-21T21:18:22.850Z,13.22
2023-04-21T21:20:54.578Z,13.16
2023-04-21T21:23:26.282Z,13.14
2023-04-21T21:25:58.585Z,13.13
2023-04-21T21:28:30.445Z,13.08
2023-04-21T21:31:02.202Z,13.00
2023-04-21T21:33:33.759Z,13.00
2023-04-21T21:36:05.746Z,12.98
2023-04-21T21:38:37.430Z,12.94
2023-04-21T21:41:11.567Z,12.89
2023-04-21T21:43:43.173Z,12.89
2023-04-21T21:46:14.846Z,12.83
2023-04-21T21:48:46.517Z,12.77
2023-04-21T21:51:18.123Z,12.66
2023-04-21T21:53:49.689Z,12.62
2023-04-21T21:56:21.990Z,12.60
2023-04-21T21:58:53.560Z,12.58
2023-04-21T22:01:25.241Z,12.59
2023-04-21T22:03:57.044Z,12.55
2023-04-21T22:06:29.074Z,12.54
2023-04-21T22:09:01.052Z,12.45
2023-04-21T22:11:32.676Z,12.42
2023-04-21T22:14:18.606Z,12.35
2023-04-21T22:16:57.414Z,12.29
2023-04-21T22:19:29.322Z,12.27
2023-04-21T22:22:00.960Z,12.23
2023-04-21T22:24:32.617Z,12.17
2023-04-21T22:27:04.535Z,12.11
2023-04-21T22:29:36.575Z,12.06
2023-04-21T22:32:09.309Z,12.03
2023-04-21T22:34:40.896Z,12.04
2023-04-21T22:37:12.576Z,12.00
2023-04-21T22:39:44.157Z,11.99
2023-04-21T22:42:15.839Z,11.94
2023-04-21T22:44:47.456Z,11.84
2023-04-21T22:47:19.359Z,11.80
2023-04-21T22:49:51.327Z,11.73
2023-04-21T22:52:23.020Z,11.70
2023-04-21T22:54:54.700Z,11.67
2023-04-21T22:57:27.029Z,11.63
2023-04-21T22:59:58.570Z,11.57
2023-04-21T23:02:30.393Z,11.54
2023-04-21T23:05:02.236Z,11.54
2023-04-21T23:07:33.929Z,11.53
2023-04-21T23:10:05.955Z,11.54
2023-04-21T23:12:37.610Z,11.53
2023-04-21T23:15:09.452Z,11.51
2023-04-21T23:17:42.767Z,11.49
2023-04-21T23:20:15.356Z,11.42
2023-04-21T23:22:47.017Z,11.39
2023-04-21T23:25:19.665Z,11.38
2023-04-21T23:27:51.325Z,11.34
2023-04-21T23:30:22.935Z,11.35
2023-04-21T23:32:54.843Z,11.31
2023-04-21T23:35:26.832Z,11.29
2023-04-21T23:37:58.451Z,11.23
2023-04-21T23:40:30.200Z,11.22
2023-04-21T23:43:01.813Z,11.22
2023-04-21T23:45:33.473Z,11.18
2023-04-21T23:48:05.170Z,11.16
2023-04-21T23:50:36.771Z,11.14
2023-04-21T23:53:08.279Z,11.11
2023-04-21T23:55:39.900Z,11.05
2023-04-21T23:58:11.968Z,11.08
